createdAt,value
2022-09-23T00:00:44.015Z,77.24
2022-09-23T00:01:44.078Z,76.83
2022-09-23T00:02:44.070Z,76.83
2022-09-23T00:03:43.994Z,76.83
2022-09-23T00:04:44.002Z,76.83
2022-09-23T00:05:43.974Z,76.93
2022-09-23T00:06:43.984Z,76.83
2022-09-23T00:07:43.974Z,76.62
2022-09-23T00:08:44.022Z,76.83
2022-09-23T00:09:43.963Z,77.14
2022-09-23T00:10:44.593Z,77.03
2022-09-23T00:11:43.882Z,76.83
2022-09-23T00:12:43.876Z,76.93
2022-09-23T00:13:43.852Z,76.93
2022-09-23T00:14:43.849Z,76.83
2022-09-23T00:15:43.832Z,76.93
2022-09-23T00:16:43.896Z,76.93
2022-09-23T00:17:43.813Z,77.14
2022-09-23T00:18:43.790Z,77.03
2022-09-23T00:19:43.790Z,77.24
2022-09-23T00:20:43.760Z,77.55
2022-09-23T00:21:43.751Z,77.34
2022-09-23T00:22:43.742Z,77.03
2022-09-23T00:23:43.741Z,77.03
2022-09-23T00:24:43.730Z,76.83
2022-09-23T00:25:43.731Z,77.03
2022-09-23T00:26:43.700Z,77.03
2022-09-23T00:27:43.723Z,77.03
2022-09-23T00:28:43.830Z,77.03
2022-09-23T00:29:43.700Z,77.14
2022-09-23T00:30:43.794Z,76.93
2022-09-23T00:31:43.699Z,76.83
2022-09-23T00:32:43.643Z,77.14
2022-09-23T00:33:43.648Z,77.03
2022-09-23T00:34:43.604Z,77.24
2022-09-23T00:35:43.577Z,77.24
2022-09-23T00:36:43.567Z,77.24
2022-09-23T00:37:43.555Z,77.34
2022-09-23T00:38:43.537Z,77.55
2022-09-23T00:39:43.538Z,77.24
2022-09-23T00:40:43.584Z,77.03
2022-09-23T00:41:43.496Z,77.03
2022-09-23T00:42:43.511Z,76.93
2022-09-23T00:43:43.466Z,77.03
2022-09-23T00:44:43.466Z,76.93
2022-09-23T00:45:43.494Z,77.03
2022-09-23T00:46:43.435Z,77.34
2022-09-23T00:47:43.425Z,77.14
2022-09-23T00:48:43.419Z,77.03
2022-09-23T00:49:43.435Z,77.03
2022-09-23T00:50:43.386Z,77.03
2022-09-23T00:51:43.379Z,77.14
2022-09-23T00:52:43.356Z,77.03
2022-09-23T00:53:43.337Z,76.93
2022-09-23T00:54:43.346Z,77.14
2022-09-23T00:55:43.315Z,76.73
2022-09-23T00:56:43.310Z,76.83
2022-09-23T00:57:43.305Z,76.73
2022-09-23T00:58:43.292Z,76.83
2022-09-23T00:59:43.324Z,77.03
2022-09-23T01:00:43.254Z,76.83
2022-09-23T01:01:43.263Z,77.03
2022-09-23T01:02:43.255Z,77.03
2022-09-23T01:03:43.214Z,76.93
2022-09-23T01:04:43.214Z,77.03
2022-09-23T01:05:43.193Z,76.93
2022-09-23T01:06:43.173Z,76.83
2022-09-23T01:07:43.162Z,76.83
2022-09-23T01:08:43.157Z,76.93
2022-09-23T01:09:43.146Z,77.03
2022-09-23T01:10:43.124Z,77.03
2022-09-23T01:11:43.112Z,77.14
2022-09-23T01:12:43.104Z,77.24
2022-09-23T01:13:43.083Z,77.03
2022-09-23T01:14:43.096Z,77.24
2022-09-23T01:15:43.063Z,77.24
2022-09-23T01:16:43.121Z,77.24
2022-09-23T01:17:43.033Z,77.14
2022-09-23T01:18:43.032Z,77.24
2022-09-23T01:19:43.022Z,77.03
2022-09-23T01:20:43.005Z,76.83
2022-09-23T01:21:42.992Z,76.93
2022-09-23T01:22:42.971Z,77.14
2022-09-23T01:23:42.960Z,76.93
2022-09-23T01:24:42.972Z,77.03
2022-09-23T01:25:42.931Z,76.83
2022-09-23T01:26:42.931Z,77.03
2022-09-23T01:27:42.921Z,77.14
2022-09-23T01:28:42.919Z,77.14
2022-09-23T01:29:42.899Z,77.34
2022-09-23T01:30:42.946Z,77.17
2022-09-23T01:31:42.862Z,77.07
2022-09-23T01:32:42.849Z,77.03
2022-09-23T01:33:42.830Z,77.17
2022-09-23T01:34:42.830Z,77.38
2022-09-23T01:35:42.809Z,77.38
2022-09-23T01:36:42.799Z,77.38
2022-09-23T01:37:42.779Z,77.48
2022-09-23T01:38:42.770Z,77.58
2022-09-23T01:39:42.763Z,77.38
2022-09-23T01:40:42.819Z,77.48
2022-09-23T01:41:42.741Z,77.58
2022-09-23T01:42:42.729Z,77.79
2022-09-23T01:43:42.709Z,77.69
2022-09-23T01:44:42.718Z,77.58
2022-09-23T01:45:42.708Z,77.58
2022-09-23T01:46:42.689Z,77.69
2022-09-23T01:47:42.648Z,77.69
2022-09-23T01:48:42.667Z,77.69
2022-09-23T01:49:42.678Z,77.79
2022-09-23T01:50:42.651Z,77.79
2022-09-23T01:51:42.598Z,77.58
2022-09-23T01:52:42.588Z,77.69
2022-09-23T01:53:42.567Z,77.69
2022-09-23T01:54:42.576Z,77.69
2022-09-23T01:55:42.546Z,77.69
2022-09-23T01:56:50.048Z,77.58
2022-09-23T01:57:50.025Z,77.79
2022-09-23T01:58:42.514Z,77.69
2022-09-23T01:59:42.514Z,77.89
2022-09-23T02:00:42.486Z,77.89
2022-09-23T02:01:42.537Z,77.79
2022-09-23T02:02:42.521Z,77.79
2022-09-23T02:03:42.445Z,77.79
2022-09-23T02:04:42.457Z,77.89
2022-09-23T02:05:42.422Z,77.79
2022-09-23T02:06:42.414Z,77.69
2022-09-23T02:07:42.403Z,77.79
2022-09-23T02:08:42.384Z,77.89
2022-09-23T02:09:42.382Z,77.58
2022-09-23T02:10:42.362Z,77.58
2022-09-23T02:11:42.351Z,77.69
2022-09-23T02:12:42.333Z,77.48
2022-09-23T02:13:42.314Z,77.48
2022-09-23T02:14:42.313Z,77.48
2022-09-23T02:15:42.292Z,77.58
2022-09-23T02:16:42.445Z,77.69
2022-09-23T02:17:42.262Z,77.72
2022-09-23T02:18:42.253Z,77.72
2022-09-23T02:19:42.250Z,77.72
2022-09-23T02:20:42.234Z,77.72
2022-09-23T02:21:42.221Z,77.51
2022-09-23T02:22:42.202Z,77.31
2022-09-23T02:23:42.181Z,77.00
2022-09-23T02:24:42.202Z,77.11
2022-09-23T02:25:42.181Z,77.31
2022-09-23T02:26:42.151Z,77.31
2022-09-23T02:27:42.141Z,77.42
2022-09-23T02:28:42.128Z,77.31
2022-09-23T02:29:42.121Z,77.42
2022-09-23T02:30:42.102Z,77.31
2022-09-23T02:31:42.139Z,77.31
2022-09-23T02:32:42.072Z,77.42
2022-09-23T02:33:42.059Z,77.31
2022-09-23T02:34:42.060Z,77.42
2022-09-23T02:35:42.029Z,77.51
2022-09-23T02:36:42.029Z,77.31
2022-09-23T02:37:42.008Z,77.35
2022-09-23T02:38:41.997Z,77.45
2022-09-23T02:39:42.019Z,77.45
2022-09-23T02:40:42.084Z,77.55
2022-09-23T02:41:41.962Z,77.45
2022-09-23T02:42:41.939Z,77.35
2022-09-23T02:43:41.927Z,77.35
2022-09-23T02:44:41.929Z,77.04
2022-09-23T02:45:41.974Z,77.04
2022-09-23T02:46:41.887Z,77.14
2022-09-23T02:47:41.876Z,77.14
2022-09-23T02:48:41.866Z,77.25
2022-09-23T02:49:41.859Z,77.04
2022-09-23T02:50:41.847Z,76.93
2022-09-23T02:51:41.838Z,76.83
2022-09-23T02:52:41.820Z,76.73
2022-09-23T02:53:41.797Z,77.04
2022-09-23T02:54:41.796Z,77.35
2022-09-23T02:55:41.774Z,77.28
2022-09-23T02:56:41.759Z,77.38
2022-09-23T02:57:41.745Z,77.48
2022-09-23T02:58:41.740Z,77.48
2022-09-23T02:59:41.726Z,77.18
2022-09-23T03:00:41.711Z,77.38
2022-09-23T03:01:41.763Z,77.38
2022-09-23T03:02:41.858Z,77.48
2022-09-23T03:03:41.666Z,77.38
2022-09-23T03:04:41.666Z,77.59
2022-09-23T03:05:41.652Z,77.59
2022-09-23T03:06:41.636Z,77.59
2022-09-23T03:07:41.614Z,77.48
2022-09-23T03:08:41.646Z,77.48
2022-09-23T03:09:41.593Z,77.48
2022-09-23T03:10:41.584Z,77.59
2022-09-23T03:11:41.563Z,77.62
2022-09-23T03:12:41.553Z,77.52
2022-09-23T03:13:41.535Z,77.62
2022-09-23T03:14:41.541Z,77.62
2022-09-23T03:15:41.512Z,77.73
2022-09-23T03:16:41.528Z,77.62
2022-09-23T03:17:41.513Z,77.73
2022-09-23T03:18:41.474Z,77.73
2022-09-23T03:19:41.472Z,77.73
2022-09-23T03:20:41.451Z,77.62
2022-09-23T03:21:41.434Z,77.52
2022-09-23T03:22:41.422Z,77.52
2022-09-23T03:23:41.412Z,77.62
2022-09-23T03:24:41.402Z,77.83
2022-09-23T03:25:41.392Z,77.94
2022-09-23T03:26:41.371Z,78.08
2022-09-23T03:27:41.350Z,78.08
2022-09-23T03:28:41.341Z,77.97
2022-09-23T03:29:41.328Z,78.08
2022-09-23T03:30:41.330Z,78.18
2022-09-23T03:31:41.353Z,78.28
2022-09-23T03:32:41.289Z,78.28
2022-09-23T03:33:41.290Z,78.18
2022-09-23T03:34:41.269Z,78.08
2022-09-23T03:35:41.260Z,77.87
2022-09-23T03:36:41.239Z,77.97
2022-09-23T03:37:41.228Z,77.87
2022-09-23T03:38:41.212Z,77.87
2022-09-23T03:39:41.205Z,77.97
2022-09-23T03:40:41.260Z,78.08
2022-09-23T03:41:41.168Z,78.08
2022-09-23T03:42:41.159Z,77.87
2022-09-23T03:43:41.146Z,78.01
2022-09-23T03:44:41.137Z,78.11
2022-09-23T03:45:41.161Z,78.21
2022-09-23T03:46:41.108Z,78.01
2022-09-23T03:47:41.095Z,78.11
2022-09-23T03:48:41.087Z,77.91
2022-09-23T03:49:41.067Z,78.01
2022-09-23T03:50:41.069Z,77.91
2022-09-23T03:51:44.491Z,77.91
2022-09-23T03:52:41.055Z,77.80
2022-09-23T03:53:41.020Z,78.01
2022-09-23T03:54:41.005Z,78.11
2022-09-23T03:55:40.995Z,77.91
2022-09-23T03:56:40.976Z,77.80
2022-09-23T03:57:40.974Z,77.91
2022-09-23T03:58:40.957Z,77.80
2022-09-23T03:59:40.943Z,77.91
2022-09-23T04:00:40.967Z,77.91
2022-09-23T04:01:40.993Z,78.14
2022-09-23T04:02:40.906Z,78.25
2022-09-23T04:03:40.896Z,78.35
2022-09-23T04:04:40.885Z,78.35
2022-09-23T04:05:40.875Z,78.35
2022-09-23T04:06:40.853Z,78.35
2022-09-23T04:07:40.843Z,78.45
2022-09-23T04:08:40.823Z,78.45
2022-09-23T04:09:40.813Z,78.45
2022-09-23T04:10:40.803Z,78.35
2022-09-23T04:11:40.783Z,78.56
2022-09-23T04:12:40.772Z,78.35
2022-09-23T04:13:40.762Z,78.35
2022-09-23T04:14:40.751Z,78.35
2022-09-23T04:15:40.742Z,78.49
2022-09-23T04:16:40.775Z,78.39
2022-09-23T04:17:40.712Z,78.59
2022-09-23T04:18:40.702Z,78.70
2022-09-23T04:19:40.680Z,78.70
2022-09-23T04:20:40.682Z,78.70
2022-09-23T04:21:40.651Z,78.80
2022-09-23T04:22:40.653Z,78.80
2022-09-23T04:23:40.629Z,78.91
2022-09-23T04:24:40.620Z,79.11
2022-09-23T04:25:40.610Z,79.11
2022-09-23T04:26:40.591Z,79.01
2022-09-23T04:27:40.578Z,78.91
2022-09-23T04:28:40.570Z,79.01
2022-09-23T04:29:40.586Z,79.22
2022-09-23T04:30:40.557Z,79.01
2022-09-23T04:31:40.619Z,79.11
2022-09-23T04:32:40.510Z,79.25
2022-09-23T04:33:40.499Z,79.15
2022-09-23T04:34:40.489Z,79.25
2022-09-23T04:35:40.623Z,79.25
2022-09-23T04:36:40.473Z,79.36
2022-09-23T04:37:40.440Z,79.36
2022-09-23T04:38:40.441Z,79.36
2022-09-23T04:39:40.418Z,79.36
2022-09-23T04:40:40.490Z,79.36
2022-09-23T04:41:40.407Z,79.56
2022-09-23T04:42:40.385Z,79.56
2022-09-23T04:43:40.379Z,79.56
2022-09-23T04:44:40.347Z,79.66
2022-09-23T04:45:40.364Z,79.66
2022-09-23T04:46:40.559Z,79.56
2022-09-23T04:47:40.316Z,79.66
2022-09-23T04:48:40.296Z,79.77
2022-09-23T04:49:40.295Z,79.80
2022-09-23T04:50:40.285Z,79.80
2022-09-23T04:51:40.276Z,79.80
2022-09-23T04:52:40.252Z,79.70
2022-09-23T04:53:40.244Z,79.80
2022-09-23T04:54:40.247Z,79.80
2022-09-23T04:55:40.225Z,79.91
2022-09-23T04:56:40.195Z,80.11
2022-09-23T04:57:40.184Z,80.01
2022-09-23T04:58:40.174Z,80.01
2022-09-23T04:59:40.164Z,79.91
2022-09-23T05:00:40.236Z,80.01
2022-09-23T05:01:40.333Z,80.01
2022-09-23T05:02:40.197Z,79.91
2022-09-23T05:03:40.113Z,79.91
2022-09-23T05:04:40.097Z,80.01
2022-09-23T05:05:40.092Z,80.11
2022-09-23T05:06:40.073Z,80.22
2022-09-23T05:07:40.059Z,80.11
2022-09-23T05:08:40.042Z,80.22
2022-09-23T05:09:40.031Z,80.11
2022-09-23T05:10:40.022Z,79.91
2022-09-23T05:11:40.011Z,79.91
2022-09-23T05:12:39.992Z,80.11
2022-09-23T05:13:39.990Z,80.22
2022-09-23T05:14:39.969Z,80.32
2022-09-23T05:15:39.968Z,80.11
2022-09-23T05:16:39.985Z,80.22
2022-09-23T05:17:39.931Z,80.43
2022-09-23T05:18:39.910Z,80.32
2022-09-23T05:19:39.923Z,80.53
2022-09-23T05:20:39.898Z,80.53
2022-09-23T05:21:39.880Z,80.63
2022-09-23T05:22:39.860Z,80.43
2022-09-23T05:23:39.859Z,80.11
2022-09-23T05:24:39.840Z,80.01
2022-09-23T05:25:39.839Z,80.11
2022-09-23T05:26:39.808Z,80.22
2022-09-23T05:27:39.800Z,80.22
2022-09-23T05:28:39.780Z,80.32
2022-09-23T05:29:39.777Z,80.43
2022-09-23T05:30:39.768Z,80.11
2022-09-23T05:31:39.784Z,80.11
2022-09-23T05:32:39.737Z,80.18
2022-09-23T05:33:39.728Z,80.29
2022-09-23T05:34:39.707Z,80.08
2022-09-23T05:35:39.707Z,80.08
2022-09-23T05:36:39.676Z,79.97
2022-09-23T05:37:39.681Z,79.97
2022-09-23T05:38:39.657Z,80.08
2022-09-23T05:39:39.638Z,79.87
2022-09-23T05:40:39.700Z,79.77
2022-09-23T05:41:39.617Z,79.97
2022-09-23T05:42:39.607Z,79.97
2022-09-23T05:43:39.595Z,79.97
2022-09-23T05:44:39.605Z,80.29
2022-09-23T05:45:39.577Z,80.29
2022-09-23T05:46:39.604Z,80.15
2022-09-23T05:47:39.548Z,80.15
2022-09-23T05:48:39.526Z,80.25
2022-09-23T05:49:58.487Z,80.11
2022-09-23T05:50:40.506Z,79.69
2022-09-23T05:51:39.484Z,79.49
2022-09-23T05:52:39.474Z,79.45
2022-09-23T05:53:39.584Z,79.25
2022-09-23T05:54:39.444Z,79.55
2022-09-23T05:55:39.453Z,79.31
2022-09-23T05:56:39.423Z,79.21
2022-09-23T05:57:39.411Z,79.07
2022-09-23T05:58:39.393Z,79.03
2022-09-23T05:59:39.383Z,79.03
2022-09-23T06:00:39.401Z,78.93
2022-09-23T06:01:39.459Z,78.58
2022-09-23T06:02:39.476Z,78.58
2022-09-23T06:03:39.342Z,78.58
2022-09-23T06:04:39.312Z,78.38
2022-09-23T06:05:39.323Z,78.38
2022-09-23T06:06:39.292Z,78.58
2022-09-23T06:07:39.288Z,78.65
2022-09-23T06:08:39.367Z,78.86
2022-09-23T06:09:39.269Z,79.16
2022-09-23T06:10:39.243Z,79.16
2022-09-23T06:11:39.232Z,79.27
2022-09-23T06:12:39.211Z,79.37
2022-09-23T06:13:39.204Z,79.58
2022-09-23T06:14:39.201Z,79.47
2022-09-23T06:15:39.230Z,79.58
2022-09-23T06:16:39.159Z,79.85
2022-09-23T06:17:39.157Z,79.85
2022-09-23T06:18:39.141Z,79.95
2022-09-23T06:19:39.139Z,79.95
2022-09-23T06:20:39.109Z,79.95
2022-09-23T06:21:39.099Z,80.16
2022-09-23T06:22:40.239Z,80.16
2022-09-23T06:23:41.550Z,80.16
2022-09-23T06:24:39.079Z,80.05
2022-09-23T06:25:39.058Z,80.16
2022-09-23T06:26:39.029Z,80.43
2022-09-23T06:27:39.029Z,80.53
2022-09-23T06:28:39.008Z,80.53
2022-09-23T06:29:39.000Z,80.74
2022-09-23T06:30:38.990Z,80.80
2022-09-23T06:31:39.021Z,81.01
2022-09-23T06:32:38.961Z,81.07
2022-09-23T06:33:38.947Z,81.28
2022-09-23T06:34:49.666Z,81.34
2022-09-23T06:35:40.417Z,81.20
2022-09-23T06:36:43.782Z,81.00
2022-09-23T06:37:39.895Z,81.16
2022-09-23T06:38:38.878Z,81.06
2022-09-23T06:39:38.869Z,80.92
2022-09-23T06:40:38.935Z,80.82
2022-09-23T06:41:38.858Z,80.47
2022-09-23T06:42:38.827Z,80.07
2022-09-23T06:43:38.816Z,79.72
2022-09-23T06:44:38.796Z,79.31
2022-09-23T06:45:38.797Z,79.00
2022-09-23T06:46:38.975Z,78.97
2022-09-23T06:47:38.766Z,78.86
2022-09-23T06:48:41.731Z,78.35
2022-09-23T06:49:39.738Z,78.35
2022-09-23T06:50:38.726Z,78.31
2022-09-23T06:51:38.716Z,77.91
2022-09-23T06:52:38.695Z,77.70
2022-09-23T06:53:38.676Z,77.91
2022-09-23T06:54:38.695Z,77.70
2022-09-23T06:55:38.679Z,77.60
2022-09-23T06:56:39.716Z,77.67
2022-09-23T06:57:38.636Z,77.56
2022-09-23T06:58:38.615Z,77.22
2022-09-23T06:59:38.617Z,77.01
2022-09-23T07:00:38.605Z,76.50
2022-09-23T07:01:38.737Z,76.50
2022-09-23T07:02:38.647Z,76.47
2022-09-23T07:03:38.566Z,76.67
2022-09-23T07:04:38.549Z,76.67
2022-09-23T07:05:38.554Z,76.57
2022-09-23T07:06:38.548Z,76.43
2022-09-23T07:07:38.495Z,76.43
2022-09-23T07:08:38.485Z,76.53
2022-09-23T07:09:38.474Z,76.81
2022-09-23T07:10:38.623Z,76.56
2022-09-23T07:11:38.457Z,76.26
2022-09-23T07:12:38.432Z,75.92
2022-09-23T07:13:38.425Z,75.51
2022-09-23T07:14:38.455Z,75.07
2022-09-23T07:15:38.614Z,74.76
2022-09-23T07:16:38.405Z,74.45
2022-09-23T07:17:38.385Z,73.81
2022-09-23T07:18:38.406Z,73.81
2022-09-23T07:19:38.349Z,73.50
2022-09-23T07:20:38.343Z,73.30
2022-09-23T07:21:38.345Z,73.10
2022-09-23T07:22:38.364Z,73.19
2022-09-23T07:23:38.305Z,72.86
2022-09-23T07:24:38.277Z,72.55
2022-09-23T07:25:38.284Z,72.45
2022-09-23T07:26:42.253Z,72.52
2022-09-23T07:27:39.244Z,72.31
2022-09-23T07:28:38.293Z,71.87
2022-09-23T07:29:47.299Z,71.47
2022-09-23T07:30:41.184Z,71.67
2022-09-23T07:31:40.040Z,71.64
2022-09-23T07:32:47.685Z,71.53
2022-09-23T07:33:39.217Z,70.89
2022-09-23T07:34:38.143Z,70.48
2022-09-23T07:35:38.144Z,70.48
2022-09-23T07:36:38.164Z,70.14
2022-09-23T07:37:38.143Z,70.14
2022-09-23T07:38:42.778Z,69.74
2022-09-23T07:39:39.108Z,69.74
2022-09-23T07:40:38.246Z,69.91
2022-09-23T07:41:38.058Z,70.01
2022-09-23T07:42:38.044Z,70.01
2022-09-23T07:43:38.036Z,69.81
2022-09-23T07:44:38.013Z,69.70
2022-09-23T07:45:38.013Z,69.30
2022-09-23T07:46:38.031Z,68.89
2022-09-23T07:47:37.993Z,68.99
2022-09-23T07:48:37.961Z,68.96
2022-09-23T07:49:37.953Z,69.06
2022-09-23T07:50:37.948Z,68.86
2022-09-23T07:51:37.924Z,68.55
2022-09-23T07:52:37.902Z,68.66
2022-09-23T07:53:37.904Z,68.25
2022-09-23T07:54:37.882Z,68.15
2022-09-23T07:55:37.882Z,68.35
2022-09-23T07:56:37.856Z,67.94
2022-09-23T07:57:37.843Z,67.64
2022-09-23T07:58:37.846Z,67.54
2022-09-23T07:59:37.823Z,67.71
2022-09-23T08:00:37.803Z,67.20
2022-09-23T08:01:37.806Z,67.10
2022-09-23T08:02:37.796Z,67.20
2022-09-23T08:03:37.763Z,67.20
2022-09-23T08:04:37.768Z,67.07
2022-09-23T08:05:37.732Z,66.66
2022-09-23T08:06:37.712Z,66.46
2022-09-23T08:07:37.702Z,66.02
2022-09-23T08:08:37.696Z,66.50
2022-09-23T08:09:37.694Z,66.30
2022-09-23T08:10:37.663Z,65.96
2022-09-23T08:11:37.661Z,65.93
2022-09-23T08:12:37.642Z,65.73
2022-09-23T08:13:37.639Z,65.70
2022-09-23T08:14:37.621Z,64.65
2022-09-23T08:15:37.721Z,64.73
2022-09-23T08:16:37.591Z,63.78
2022-09-23T08:17:37.575Z,63.45
2022-09-23T08:18:37.561Z,62.95
2022-09-23T08:19:37.564Z,62.31
2022-09-23T08:20:37.556Z,61.80
2022-09-23T08:21:37.586Z,61.88
2022-09-23T08:22:37.529Z,61.55
2022-09-23T08:23:37.503Z,60.61
2022-09-23T08:24:37.491Z,59.70
2022-09-23T08:25:37.480Z,58.47
2022-09-23T08:26:37.472Z,59.17
2022-09-23T08:27:37.444Z,58.94
2022-09-23T08:28:37.433Z,58.23
2022-09-23T08:29:37.431Z,58.51
2022-09-23T08:30:37.437Z,58.01
2022-09-23T08:31:37.391Z,58.28
2022-09-23T08:32:37.388Z,58.48
2022-09-23T08:33:37.377Z,58.15
2022-09-23T08:34:37.361Z,57.75
2022-09-23T08:35:37.343Z,56.62
2022-09-23T08:36:37.321Z,56.51
2022-09-23T08:37:37.311Z,57.02
2022-09-23T08:38:37.320Z,56.59
2022-09-23T08:39:37.301Z,55.68
2022-09-23T08:40:37.314Z,55.48
2022-09-23T08:41:37.261Z,55.18
2022-09-23T08:42:37.253Z,54.68
2022-09-23T08:43:37.246Z,54.35
2022-09-23T08:44:37.233Z,54.55
2022-09-23T08:45:37.213Z,54.33
2022-09-23T08:46:37.201Z,53.92
2022-09-23T08:47:37.183Z,53.92
2022-09-23T08:48:37.172Z,53.02
2022-09-23T08:49:37.171Z,53.70
2022-09-23T08:50:37.143Z,52.80
2022-09-23T08:51:37.129Z,52.19
2022-09-23T08:52:37.111Z,52.19
2022-09-23T08:53:37.101Z,52.89
2022-09-23T08:54:37.092Z,52.87
2022-09-23T08:55:37.081Z,51.94
2022-09-23T08:56:37.063Z,51.82
2022-09-23T08:57:37.050Z,51.42
2022-09-23T08:58:37.053Z,51.29
2022-09-23T08:59:37.031Z,51.77
2022-09-23T09:00:37.020Z,51.34
2022-09-23T09:01:37.039Z,50.22
2022-09-23T09:02:37.002Z,49.99
2022-09-23T09:03:36.980Z,48.49
2022-09-23T09:04:36.962Z,48.97
2022-09-23T09:05:36.951Z,48.05
2022-09-23T09:06:51.800Z,47.83
2022-09-23T09:07:38.422Z,47.63
2022-09-23T09:08:36.915Z,46.91
2022-09-23T09:09:36.893Z,46.91
2022-09-23T09:10:36.900Z,44.89
2022-09-23T09:11:36.861Z,46.19
2022-09-23T09:12:36.852Z,45.98
2022-09-23T09:13:36.850Z,46.38
2022-09-23T09:14:36.832Z,46.19
2022-09-23T09:15:36.844Z,45.66
2022-09-23T09:16:58.480Z,45.86
2022-09-23T09:17:37.798Z,45.86
2022-09-23T09:18:36.781Z,45.54
2022-09-23T09:19:36.762Z,45.64
2022-09-23T09:20:36.771Z,45.34
2022-09-23T09:21:36.742Z,44.12
2022-09-23T09:23:36.714Z,43.52
2022-09-23T09:24:36.702Z,43.75
2022-09-23T09:25:36.708Z,44.17
2022-09-23T09:26:36.682Z,43.07
2022-09-23T09:27:36.663Z,43.67
2022-09-23T09:28:36.654Z,43.77
2022-09-23T09:29:36.786Z,44.07
2022-09-23T09:30:36.698Z,44.57
2022-09-23T09:31:36.640Z,43.85
2022-09-23T09:32:36.592Z,43.75
2022-09-23T09:33:36.585Z,44.62
2022-09-23T09:34:36.570Z,44.10
2022-09-23T09:35:36.582Z,43.90
2022-09-23T09:36:36.550Z,43.79
2022-09-23T09:37:36.528Z,43.38
2022-09-23T09:38:36.523Z,42.86
2022-09-23T09:39:36.502Z,42.47
2022-09-23T09:40:36.542Z,42.57
2022-09-23T09:41:36.490Z,41.85
2022-09-23T09:42:36.463Z,41.85
2022-09-23T09:43:38.016Z,41.95
2022-09-23T09:44:37.205Z,41.36
2022-09-23T09:45:36.450Z,41.44
2022-09-23T09:46:36.453Z,40.74
2022-09-23T09:47:36.394Z,40.92
2022-09-23T09:48:36.414Z,41.12
2022-09-23T09:49:40.353Z,40.62
2022-09-23T09:50:36.372Z,40.42
2022-09-23T09:51:36.342Z,40.03
2022-09-23T09:52:37.994Z,39.73
2022-09-23T09:53:36.259Z,39.41
2022-09-23T09:54:36.258Z,39.61
2022-09-23T09:55:36.249Z,39.90
2022-09-23T09:56:36.323Z,38.12
2022-09-23T09:57:36.350Z,39.01
2022-09-23T09:58:36.207Z,39.43
2022-09-23T09:59:36.187Z,39.23
2022-09-23T10:00:36.186Z,38.93
2022-09-23T10:01:36.211Z,39.73
2022-09-23T10:02:36.195Z,39.43
2022-09-23T10:03:36.132Z,39.43
2022-09-23T10:04:36.157Z,39.90
2022-09-23T10:05:36.125Z,39.21
2022-09-23T10:06:36.097Z,39.61
2022-09-23T10:07:36.084Z,39.01
2022-09-23T10:08:36.064Z,38.52
2022-09-23T10:09:36.055Z,38.81
2022-09-23T10:10:36.066Z,38.92
2022-09-23T10:11:36.030Z,39.19
2022-09-23T10:12:36.014Z,39.09
2022-09-23T10:13:36.016Z,39.07
2022-09-23T10:14:35.983Z,38.98
2022-09-23T10:15:35.982Z,38.68
2022-09-23T10:16:36.036Z,38.58
2022-09-23T10:17:35.944Z,37.96
2022-09-23T10:18:35.944Z,37.96
2022-09-23T10:19:35.913Z,37.77
2022-09-23T10:20:35.924Z,37.37
2022-09-23T10:21:35.902Z,37.67
2022-09-23T10:22:35.882Z,37.47
2022-09-23T10:23:35.864Z,36.98
2022-09-23T10:24:35.863Z,36.99
2022-09-23T10:25:35.854Z,37.59
2022-09-23T10:26:35.834Z,37.37
2022-09-23T10:27:35.849Z,37.57
2022-09-23T10:28:35.804Z,36.88
2022-09-23T10:29:35.792Z,37.37
2022-09-23T10:30:35.814Z,37.57
2022-09-23T10:31:35.765Z,37.27
2022-09-23T10:32:35.774Z,37.37
2022-09-23T10:33:35.737Z,37.37
2022-09-23T10:34:35.747Z,37.27
2022-09-23T10:35:35.716Z,37.19
2022-09-23T10:36:35.706Z,37.77
2022-09-23T10:37:35.695Z,36.50
2022-09-23T10:38:35.677Z,37.19
2022-09-23T10:39:35.678Z,37.49
2022-09-23T10:40:35.709Z,36.81
2022-09-23T10:41:35.638Z,38.20
2022-09-23T10:42:35.639Z,38.00
2022-09-23T10:43:35.611Z,37.82
2022-09-23T10:44:35.600Z,37.43
2022-09-23T10:45:38.541Z,36.65
2022-09-23T10:46:36.635Z,36.27
2022-09-23T10:47:35.574Z,36.36
2022-09-23T10:48:35.552Z,37.28
2022-09-23T10:49:35.533Z,37.77
2022-09-23T10:50:35.539Z,38.37
2022-09-23T10:51:35.514Z,37.98
2022-09-23T10:52:35.505Z,38.28
2022-09-23T10:53:35.486Z,38.37
2022-09-23T10:54:35.477Z,38.37
2022-09-23T10:55:35.466Z,38.47
2022-09-23T10:56:35.453Z,38.09
2022-09-23T10:57:35.436Z,37.90
2022-09-23T10:58:35.428Z,38.31
2022-09-23T10:59:35.410Z,38.71
2022-09-23T11:00:35.408Z,38.41
2022-09-23T11:01:35.436Z,38.71
2022-09-23T11:02:35.391Z,39.21
2022-09-23T11:03:35.363Z,38.21
2022-09-23T11:04:35.431Z,38.31
2022-09-23T11:05:35.341Z,38.41
2022-09-23T11:06:35.322Z,38.81
2022-09-23T11:07:37.188Z,38.82
2022-09-23T11:08:35.302Z,38.91
2022-09-23T11:09:35.283Z,39.31
2022-09-23T11:10:46.098Z,39.70
2022-09-23T11:11:36.254Z,39.11
2022-09-23T11:12:35.247Z,39.11
2022-09-23T11:13:35.233Z,39.50
2022-09-23T11:14:35.230Z,39.61
2022-09-23T11:15:35.224Z,39.50
2022-09-23T11:16:35.242Z,39.21
2022-09-23T11:17:35.181Z,38.31
2022-09-23T11:18:35.167Z,38.51
2022-09-23T11:19:35.165Z,38.21
2022-09-23T11:20:35.148Z,38.73
2022-09-23T11:21:35.130Z,39.12
2022-09-23T11:22:35.122Z,38.63
2022-09-23T11:23:35.108Z,38.82
2022-09-23T11:24:35.101Z,38.82
2022-09-23T11:25:35.087Z,39.53
2022-09-23T11:26:35.071Z,39.42
2022-09-23T11:27:35.058Z,39.83
2022-09-23T11:28:35.041Z,39.62
2022-09-23T11:29:35.034Z,36.93
2022-09-23T11:30:35.052Z,38.82
2022-09-23T11:31:35.107Z,39.12
2022-09-23T11:32:34.992Z,39.23
2022-09-23T11:33:35.002Z,39.42
2022-09-23T11:34:34.972Z,39.32
2022-09-23T11:35:34.952Z,39.32
2022-09-23T11:36:34.953Z,38.93
2022-09-23T11:37:34.924Z,38.43
2022-09-23T11:38:34.922Z,37.23
2022-09-23T11:39:34.927Z,37.35
2022-09-23T11:40:34.962Z,37.85
2022-09-23T11:41:34.872Z,38.35
2022-09-23T11:42:34.864Z,39.04
2022-09-23T11:43:34.846Z,39.14
2022-09-23T11:44:34.846Z,38.84
2022-09-23T11:45:34.864Z,38.75
2022-09-23T11:46:34.812Z,39.34
2022-09-23T11:47:39.468Z,40.24
2022-09-23T11:48:35.784Z,39.94
2022-09-23T11:49:34.768Z,39.64
2022-09-23T11:50:34.777Z,38.75
2022-09-23T11:51:34.736Z,38.45
2022-09-23T11:52:34.740Z,38.45
2022-09-23T11:53:34.728Z,36.95
2022-09-23T11:54:34.712Z,38.67
2022-09-23T11:55:34.728Z,38.86
2022-09-23T11:56:36.596Z,38.86
2022-09-23T11:57:44.639Z,39.96
2022-09-23T11:58:35.697Z,39.56
2022-09-23T11:59:39.920Z,39.46
2022-09-23T12:00:35.640Z,39.76
2022-09-23T12:01:37.665Z,39.74
2022-09-23T12:02:34.682Z,39.84
2022-09-23T12:03:43.091Z,39.74
2022-09-23T12:04:36.393Z,39.64
2022-09-23T12:05:34.729Z,37.45
2022-09-23T12:06:34.594Z,35.97
2022-09-23T12:07:34.534Z,35.47
2022-09-23T12:08:34.530Z,37.07
2022-09-23T12:09:57.362Z,37.88
2022-09-23T12:10:35.493Z,38.68
2022-09-23T12:11:34.504Z,39.38
2022-09-23T12:12:34.481Z,39.48
2022-09-23T12:13:34.471Z,38.59
2022-09-23T12:14:34.475Z,39.76
2022-09-23T12:15:34.447Z,39.26
2022-09-23T12:16:34.499Z,39.86
2022-09-23T12:17:34.424Z,38.96
2022-09-23T12:18:34.471Z,39.26
2022-09-23T12:19:35.489Z,39.36
2022-09-23T12:20:34.373Z,39.66
2022-09-23T12:21:51.355Z,39.96
2022-09-23T12:22:35.358Z,40.26
2022-09-23T12:23:34.334Z,40.66
2022-09-23T12:24:34.338Z,40.26
2022-09-23T12:25:34.306Z,40.46
2022-09-23T12:26:34.320Z,40.36
2022-09-23T12:27:34.316Z,40.46
2022-09-23T12:28:34.353Z,40.16
2022-09-23T12:29:34.286Z,40.56
2022-09-23T12:30:34.442Z,40.46
2022-09-23T12:31:37.551Z,40.95
2022-09-23T12:32:35.215Z,40.56
2022-09-23T12:33:34.228Z,40.95
2022-09-23T12:34:34.216Z,41.53
2022-09-23T12:35:34.174Z,41.24
2022-09-23T12:36:34.163Z,41.83
2022-09-23T12:37:34.157Z,40.24
2022-09-23T12:38:34.138Z,40.14
2022-09-23T12:39:34.137Z,38.75
2022-09-23T12:40:34.175Z,39.64
2022-09-23T12:41:34.119Z,40.72
2022-09-23T12:42:34.129Z,40.22
2022-09-23T12:43:34.080Z,39.42
2022-09-23T12:44:34.129Z,40.02
2022-09-23T12:45:34.126Z,39.23
2022-09-23T12:46:34.050Z,39.32
2022-09-23T12:47:34.019Z,39.42
2022-09-23T12:48:34.010Z,39.72
2022-09-23T12:49:34.076Z,40.42
2022-09-23T12:50:34.032Z,40.62
2022-09-23T12:51:33.961Z,40.22
2022-09-23T12:52:34.001Z,40.32
2022-09-23T12:53:33.953Z,40.22